Time;durP1;ratioP1;P1;durP2;ratioP2;P2;SDS_P1;SDS_P2;PMS_P1;PMS_P2;Temp;Humidity;BMP_temperature;BMP_pressure;BME280_temperature;BME280_humidity;BME280_pressure;Samples;Min_cycle;Max_cycle;Signal;HPM_P1;HPM_P2
2022/05/15 00:01:01;;;;;;;20.20;9.05;;;;;;;17.86;48.61;100547.53;4993548;28;97927;-77
2022/05/15 00:03:37;;;;;;;20.40;9.60;;;;;;;18.03;48.34;100557.09;4993530;28;96646;-77
2022/05/15 00:06:04;;;;;;;15.05;7.85;;;;;;;17.98;48.47;100562.72;4960608;28;96849;-77
2022/05/15 00:08:32;;;;;;;14.98;6.40;;;;;;;17.99;48.56;100569.72;4976050;28;101504;-77
2022/05/15 00:10:59;;;;;;;16.42;7.43;;;;;;;17.80;48.76;100543.44;4959691;28;101029;-77
2022/05/15 00:13:25;;;;;;;13.30;6.38;;;;;;;17.92;48.56;100565.75;4976004;28;96776;-77
2022/05/15 00:15:51;;;;;;;14.65;6.55;;;;;;;17.89;48.26;100552.66;4993908;28;97150;-79
2022/05/15 00:18:19;;;;;;;16.02;7.43;;;;;;;17.73;49.07;100560.63;4992423;28;97440;-76
2022/05/15 00:20:45;;;;;;;15.00;7.50;;;;;;;17.57;49.37;100551.88;4956024;28;101028;-77
2022/05/15 00:23:12;;;;;;;17.58;8.98;;;;;;;17.70;49.22;100549.38;4971449;28;97193;-77
2022/05/15 00:25:38;;;;;;;22.30;10.10;;;;;;;17.86;48.88;100576.75;4973438;28;97261;-77
2022/05/15 00:28:05;;;;;;;20.33;9.60;;;;;;;17.73;48.81;100560.63;5007613;28;98102;-77
2022/05/15 00:30:31;;;;;;;22.60;10.30;;;;;;;17.84;48.83;100576.81;4992695;28;98202;-77
2022/05/15 00:32:58;;;;;;;25.38;12.15;;;;;;;17.81;48.62;100576.16;4960066;28;96778;-77
2022/05/15 00:35:23;;;;;;;29.67;13.63;;;;;;;17.77;49.07;100583.44;4972692;28;98594;-77
2022/05/15 00:37:49;;;;;;;32.85;17.10;;;;;;;17.74;49.23;100583.56;4970830;28;101224;-77
2022/05/15 00:40:17;;;;;;;50.22;21.02;;;;;;;17.72;49.14;100566.06;4971518;28;101053;-77
2022/05/15 00:42:45;;;;;;;51.65;23.65;;;;;;;17.79;48.75;100580.69;4976152;28;96801;-77
2022/05/15 00:45:11;;;;;;;46.30;22.02;;;;;;;17.72;49.30;100595.25;4959224;28;96977;-77
2022/05/15 00:47:37;;;;;;;52.90;22.70;;;;;;;17.81;49.29;100587.63;4993688;28;98043;-77
2022/05/15 00:50:05;;;;;;;53.55;22.52;;;;;;;17.76;49.39;100586.16;4972144;28;101407;-77
2022/05/15 00:52:34;;;;;;;51.50;22.42;;;;;;;17.60;49.03;100559.69;4987667;28;97217;-77
2022/05/15 00:55:06;;;;;;;33.72;15.75;;;;;;;17.59;49.76;100590.66;4973464;28;97094;-77
2022/05/15 00:57:36;;;;;;;27.08;12.18;;;;;;;17.65;48.91;100597.41;4992475;28;101835;-77
2022/05/15 01:00:04;;;;;;;22.17;9.68;;;;;;;17.58;49.12;100590.75;4992599;28;98036;-77
2022/05/15 01:02:33;;;;;;;24.05;8.43;;;;;;;17.54;48.88;100590.09;4975572;28;96644;-77
2022/05/15 01:04:59;;;;;;;15.63;6.40;;;;;;;17.59;48.51;100595.97;4991979;28;98424;-77
2022/05/15 01:07:24;;;;;;;13.45;6.13;;;;;;;17.50;48.66;100591.19;4991363;28;100864;-77
2022/05/15 01:09:50;;;;;;;15.07;5.30;;;;;;;17.52;48.62;100593.78;4973255;28;100964;-77
2022/05/15 01:12:16;;;;;;;13.88;5.60;;;;;;;17.51;48.43;100592.94;4972181;28;97179;-77
2022/05/15 01:14:44;;;;;;;11.30;5.05;;;;;;;17.57;48.69;100599.66;4990566;28;96904;-77
2022/05/15 01:17:11;;;;;;;15.57;4.25;;;;;;;17.49;48.09;100586.84;4974841;28;100519;-77
2022/05/15 01:19:40;;;;;;;14.00;4.70;;;;;;;17.36;48.06;100565.47;4962899;28;96942;-77
2022/05/15 01:22:06;;;;;;;13.00;4.05;;;;;;;17.50;48.44;100593.84;4991908;28;98250;-77
2022/05/15 01:24:32;;;;;;;14.80;4.45;;;;;;;17.32;48.27;100568.41;4975077;28;96922;-77
2022/05/15 01:27:03;;;;;;;11.25;4.22;;;;;;;17.49;48.62;100597.47;4959179;28;99309;-77
2022/05/15 01:29:35;;;;;;;14.68;5.22;;;;;;;17.47;48.55;100603.81;4973928;28;98171;-77
2022/05/15 01:32:02;;;;;;;9.40;3.72;;;;;;;17.49;48.47;100597.47;4974948;28;97090;-77
2022/05/15 01:34:27;;;;;;;18.58;4.43;;;;;;;17.46;48.65;100597.66;4972152;28;96928;-76
2022/05/15 01:36:54;;;;;;;10.73;4.60;;;;;;;17.49;48.55;100601.91;4959073;28;101304;-76
2022/05/15 01:39:21;;;;;;;10.32;4.50;;;;;;;17.54;48.67;100602.47;4954584;28;101617;-76
2022/05/15 01:41:47;;;;;;;11.25;5.28;;;;;;;17.64;48.64;100591.25;4972285;28;96755;-78
2022/05/15 01:44:12;;;;;;;24.38;6.07;;;;;;;17.72;48.47;100595.25;4971715;28;96871;-76
2022/05/15 01:46:38;;;;;;;16.77;5.55;;;;;;;17.72;48.70;100601.41;4971496;28;98155;-76
2022/05/15 01:49:10;;;;;;;17.52;5.57;;;;;;;17.45;49.46;100598.56;4974511;28;101629;-76
2022/05/15 01:51:41;;;;;;;13.68;5.95;;;;;;;17.41;49.25;100584.63;4959067;28;96742;-76
2022/05/15 01:54:07;;;;;;;16.38;5.82;;;;;;;17.50;49.28;100604.47;4957870;28;97380;-75
2022/05/15 01:56:32;;;;;;;17.10;5.65;;;;;;;17.42;49.75;100594.31;4974762;28;98504;-76
2022/05/15 01:58:58;;;;;;;16.83;6.38;;;;;;;17.44;49.71;100602.19;4954309;28;101568;-76
2022/05/15 02:01:25;;;;;;;10.68;5.38;;;;;;;17.33;49.84;100609.91;4967460;28;96791;-78
2022/05/15 02:03:50;;;;;;;17.65;6.85;;;;;;;17.27;50.08;100600.50;4990855;28;96850;-78
2022/05/15 02:06:16;;;;;;;17.80;6.07;;;;;;;17.09;50.46;100599.75;4957776;28;101020;-76
2022/05/15 02:08:42;;;;;;;14.70;6.30;;;;;;;17.13;50.77;100597.78;4974539;28;101133;-76
2022/05/15 02:11:08;;;;;;;13.57;6.07;;;;;;;17.02;51.10;100589.59;4954553;28;96748;-76
2022/05/15 02:13:34;;;;;;;13.35;5.95;;;;;;;16.86;51.43;100590.44;4970065;28;97226;-76
2022/05/15 02:16:00;;;;;;;17.60;6.25;;;;;;;16.78;51.83;100605.91;4970589;28;101061;-78
2022/05/15 02:18:26;;;;;;;12.40;6.63;;;;;;;16.87;51.46;100600.13;4970915;28;101453;-76
2022/05/15 02:20:52;;;;;;;14.05;5.97;;;;;;;16.75;51.59;100580.41;4971660;28;97213;-76
2022/05/15 02:23:18;;;;;;;13.18;6.32;;;;;;;16.93;51.42;100596.28;4990319;28;96908;-76
2022/05/15 02:25:44;;;;;;;16.35;6.00;;;;;;;17.05;51.10;100595.56;4970963;28;101904;-76
2022/05/15 02:28:10;;;;;;;14.00;5.75;;;;;;;17.03;51.24;100608.06;4970440;28;100654;-76
2022/05/15 02:30:36;;;;;;;14.38;5.07;;;;;;;16.85;51.70;100607.28;4983654;28;97398;-76
2022/05/15 02:33:01;;;;;;;15.00;6.35;;;;;;;16.96;51.54;100614.66;4971929;28;97023;-76
2022/05/15 02:35:27;;;;;;;14.75;5.55;;;;;;;16.72;51.30;100582.34;4963601;28;98065;-76
2022/05/15 02:37:53;;;;;;;18.48;5.88;;;;;;;16.74;51.76;100614.94;4971088;28;100894;-76
2022/05/15 02:40:22;;;;;;;12.70;5.55;;;;;;;16.60;52.26;100610.38;4982360;28;96701;-76
2022/05/15 02:42:48;;;;;;;15.82;6.03;;;;;;;16.54;52.39;100610.72;4958470;28;96910;-79
2022/05/15 02:45:14;;;;;;;17.55;6.38;;;;;;;16.61;52.09;100617.44;4972751;28;101436;-76
2022/05/15 02:47:40;;;;;;;14.13;5.82;;;;;;;16.55;52.32;100599.22;4990363;28;100984;-76
2022/05/15 02:52:53;;;;;;;20.98;6.68;;;;;;;16.27;52.89;100605.97;4980643;28;97088;-76
2022/05/15 02:55:20;;;;;;;13.93;5.65;;;;;;;16.37;52.82;100627.53;4973430;28;101551;-76
2022/05/15 02:57:46;;;;;;;14.43;5.55;;;;;;;16.38;52.87;100629.25;4965238;28;101459;-76
2022/05/15 03:00:13;;;;;;;12.25;5.07;;;;;;;16.24;52.89;100608.78;4985689;28;96724;-76
2022/05/15 03:02:40;;;;;;;13.45;5.10;;;;;;;16.21;53.47;100624.00;4971150;28;96985;-76
2022/05/15 03:05:07;;;;;;;20.75;6.32;;;;;;;16.37;53.21;100635.47;4973348;28;97974;-76
2022/05/15 03:07:32;;;;;;;16.45;6.05;;;;;;;16.44;53.13;100636.03;4956725;28;101694;-76
2022/05/15 03:09:58;;;;;;;11.15;5.20;;;;;;;16.30;52.65;100616.41;4990152;28;98226;-76
2022/05/15 03:12:24;;;;;;;12.05;5.85;;;;;;;16.38;52.50;100618.66;4974308;28;96824;-76
2022/05/15 03:14:50;;;;;;;13.15;4.47;;;;;;;16.56;51.90;100640.66;4973196;28;100741;-76
2022/05/15 03:17:17;;;;;;;13.48;4.95;;;;;;;16.34;52.39;100645.38;4976545;28;100808;-76
2022/05/15 03:19:43;;;;;;;13.93;5.20;;;;;;;16.46;52.22;100650.03;4976890;28;96897;-76
2022/05/15 03:22:09;;;;;;;13.57;5.78;;;;;;;16.42;52.59;100643.19;4961246;28;96856;-76
2022/05/15 03:24:35;;;;;;;13.40;4.82;;;;;;;16.35;52.42;100641.78;4960603;28;101035;-76
2022/05/15 03:27:01;;;;;;;10.20;3.97;;;;;;;16.31;52.61;100646.41;4994162;28;98491;-76
2022/05/15 03:29:27;;;;;;;14.68;5.13;;;;;;;16.24;52.78;100648.53;4975883;28;96862;-76
2022/05/15 03:31:53;;;;;;;10.40;5.05;;;;;;;16.48;52.29;100658.75;4957852;28;96858;-79
2022/05/15 03:34:20;;;;;;;11.10;5.05;;;;;;;16.45;52.82;100654.47;4972516;28;99629;-76
2022/05/15 03:36:51;;;;;;;14.18;5.00;;;;;;;16.45;52.60;100651.81;4993932;28;97890;-76
2022/05/15 03:39:19;;;;;;;13.50;6.53;;;;;;;16.35;52.46;100637.38;4976385;28;97057;-76
2022/05/15 03:41:46;;;;;;;14.82;5.53;;;;;;;16.28;52.96;100639.47;4974658;28;97416;-76
2022/05/15 03:44:12;;;;;;;11.20;5.72;;;;;;;16.50;52.53;100663.03;4972609;28;101303;-75
2022/05/15 03:46:39;;;;;;;15.10;5.50;;;;;;;16.59;52.41;100666.16;4973977;28;101084;-76
2022/05/15 03:49:05;;;;;;;14.20;5.57;;;;;;;16.45;52.79;100673.03;4973070;28;97125;-76
2022/05/15 03:51:32;;;;;;;13.38;5.50;;;;;;;16.53;52.42;100675.28;4976715;28;97144;-78
2022/05/15 03:53:57;;;;;;;9.95;4.97;;;;;;;16.46;52.85;100658.84;4973750;28;98259;-76
2022/05/15 03:59:09;;;;;;;13.32;5.18;;;;;;;16.50;52.49;100678.09;4975131;28;96747;-76
2022/05/15 04:01:35;;;;;;;10.88;4.60;;;;;;;16.41;52.78;100670.63;4986451;28;97031;-78
2022/05/15 04:04:00;;;;;;;11.82;4.38;;;;;;;16.47;52.44;100672.97;4993154;28;98236;-76
2022/05/15 04:06:26;;;;;;;10.07;4.35;;;;;;;16.56;52.43;100683.06;4959899;28;101009;-76
2022/05/15 04:08:52;;;;;;;13.20;4.45;;;;;;;16.59;52.32;100652.91;4972500;28;96688;-76
2022/05/15 04:11:18;;;;;;;11.63;4.60;;;;;;;16.70;52.06;100672.59;4973522;28;96842;-76
2022/05/15 04:13:44;;;;;;;13.25;5.22;;;;;;;16.54;52.21;100658.44;4959337;28;101266;-76
2022/05/15 04:16:10;;;;;;;9.70;4.10;;;;;;;16.90;51.37;100682.13;4973373;28;101536;-76
2022/05/15 04:18:36;;;;;;;9.10;4.20;;;;;;;17.02;50.85;100683.25;4991660;28;97430;-76
2022/05/15 04:21:02;;;;;;;12.00;5.22;;;;;;;17.12;50.73;100688.91;4973886;28;96890;-78
2022/05/15 04:23:27;;;;;;;9.95;4.20;;;;;;;17.25;50.43;100691.72;4959309;28;101665;-76
2022/05/15 04:25:53;;;;;;;13.23;4.50;;;;;;;17.36;50.31;100692.81;4976289;28;100295;-76
2022/05/15 04:28:18;;;;;;;13.00;4.47;;;;;;;17.82;49.77;100700.00;4991932;28;96650;-76
2022/05/15 04:30:44;;;;;;;11.57;3.95;;;;;;;18.06;48.96;100695.03;4958937;28;97422;-76
2022/05/15 04:33:09;;;;;;;16.67;5.00;;;;;;;18.27;48.95;100695.56;4972720;28;101134;-76
2022/05/15 04:35:35;;;;;;;9.43;3.92;;;;;;;18.46;48.42;100701.47;4992105;28;101263;-76
2022/05/15 04:38:00;;;;;;;10.57;4.20;;;;;;;18.07;48.63;100673.72;4973017;28;97023;-76
2022/05/15 04:40:26;;;;;;;11.95;4.57;;;;;;;18.41;48.32;100708.84;4961881;28;97284;-76
2022/05/15 04:42:52;;;;;;;9.43;4.13;;;;;;;18.54;47.85;100693.88;4992017;28;100827;-77
2022/05/15 04:45:17;;;;;;;11.95;4.28;;;;;;;18.56;47.56;100693.81;4991942;28;98495;-75
2022/05/15 04:47:45;;;;;;;11.55;4.03;;;;;;;19.07;47.08;100707.47;4976052;28;96770;-76
2022/05/15 04:50:11;;;;;;;12.38;3.90;;;;;;;19.13;46.56;100703.56;4962410;28;96825;-76
2022/05/15 04:52:36;;;;;;;11.77;4.90;;;;;;;19.34;45.65;100709.31;4972511;28;98399;-76
2022/05/15 04:55:02;;;;;;;15.95;4.18;;;;;;;19.49;45.67;100716.34;4986085;28;98483;-76
2022/05/15 04:57:27;;;;;;;10.68;3.92;;;;;;;19.37;44.74;100703.78;4976362;28;98205;-76
2022/05/15 04:59:53;;;;;;;11.85;3.63;;;;;;;19.74;44.79;100722.75;4992382;28;97045;-76
2022/05/15 05:02:18;;;;;;;9.40;3.85;;;;;;;20.05;44.05;100719.75;4992584;28;97436;-76
2022/05/15 05:04:44;;;;;;;8.73;3.60;;;;;;;20.47;43.22;100723.09;4973373;28;97454;-76
2022/05/15 05:07:10;;;;;;;8.13;3.80;;;;;;;20.32;42.73;100719.66;4971545;28;96949;-76
2022/05/15 05:09:35;;;;;;;10.65;3.75;;;;;;;20.34;42.89;100724.91;4972183;28;96910;-76
2022/05/15 05:12:01;;;;;;;10.15;3.88;;;;;;;20.71;43.14;100722.38;4992587;28;97370;-75
2022/05/15 05:14:26;;;;;;;10.57;3.80;;;;;;;20.76;42.41;100720.25;4974968;28;97900;-76
2022/05/15 05:16:52;;;;;;;11.07;3.20;;;;;;;20.96;41.62;100725.03;4972977;28;96751;-76
2022/05/15 05:19:17;;;;;;;9.23;3.80;;;;;;;21.50;40.98;100725.66;4961279;28;96837;-76
2022/05/15 05:21:43;;;;;;;8.40;3.22;;;;;;;21.75;40.40;100724.72;4992325;28;97468;-76
2022/05/15 05:24:08;;;;;;;11.10;3.00;;;;;;;21.92;39.50;100730.50;4975274;28;101528;-77
2022/05/15 05:26:34;;;;;;;10.10;3.67;;;;;;;22.53;38.78;100735.69;4975348;28;96773;-76
2022/05/15 05:29:00;;;;;;;6.60;3.20;;;;;;;23.07;36.95;100731.50;4992861;28;96935;-76
2022/05/15 05:31:25;;;;;;;8.23;2.80;;;;;;;23.50;36.26;100734.22;4957315;28;101673;-76
2022/05/15 05:33:51;;;;;;;7.30;2.80;;;;;;;24.35;34.71;100737.94;4971575;28;101665;-76
2022/05/15 05:36:17;;;;;;;8.52;2.78;;;;;;;25.03;33.61;100733.78;4974620;28;96670;-76
2022/05/15 05:38:45;;;;;;;5.75;2.63;;;;;;;26.28;31.93;100735.97;4990803;28;97307;-76
2022/05/15 05:41:10;;;;;;;6.60;2.88;;;;;;;26.70;31.23;100736.47;4972035;28;101627;-76
2022/05/15 05:43:36;;;;;;;8.48;2.95;;;;;;;27.50;29.51;100740.38;4983824;28;101081;-77
2022/05/15 05:46:01;;;;;;;8.77;3.17;;;;;;;28.37;28.98;100730.75;4991922;28;97089;-77
2022/05/15 05:48:27;;;;;;;9.20;2.83;;;;;;;29.04;27.93;100706.69;4971469;28;96923;-77
2022/05/15 05:50:52;;;;;;;8.45;2.90;;;;;;;29.97;26.48;100733.63;4955948;28;101318;-77
2022/05/15 05:53:18;;;;;;;14.20;4.05;;;;;;;31.01;25.21;100717.56;4991072;28;97412;-76
2022/05/15 05:55:43;;;;;;;8.73;3.20;;;;;;;31.17;25.43;100735.66;4991044;28;96666;-79
2022/05/15 05:58:09;;;;;;;7.15;3.05;;;;;;;32.05;24.34;100726.31;4975110;28;96889;-80
2022/05/15 06:00:40;;;;;;;9.02;3.20;;;;;;;32.66;23.86;100729.81;4973770;28;97703;-80
2022/05/15 06:05:50;;;;;;;10.27;3.38;;;;;;;33.86;22.67;100734.03;4992282;28;96597;-80
2022/05/15 06:08:17;;;;;;;6.95;2.90;;;;;;;33.42;22.96;100730.41;4973460;28;97605;-80
2022/05/15 06:10:43;;;;;;;6.85;3.00;;;;;;;33.56;22.00;100723.28;4990557;28;97551;-80
2022/05/15 06:13:09;;;;;;;7.63;3.55;;;;;;;33.87;22.05;100730.31;4973844;28;101592;-80
2022/05/15 06:15:35;;;;;;;4.93;2.28;;;;;;;34.86;21.17;100736.56;4971022;28;96793;-80
2022/05/15 06:18:02;;;;;;;5.18;2.47;;;;;;;34.84;20.91;100735.06;4986850;28;97943;-80
2022/05/15 06:20:29;;;;;;;4.78;2.17;;;;;;;35.44;20.43;100729.91;4969867;28;98146;-80
2022/05/15 06:22:55;;;;;;;5.25;2.35;;;;;;;35.55;19.90;100724.72;4991832;28;96775;-80
2022/05/15 06:25:21;;;;;;;8.40;2.75;;;;;;;36.32;19.43;100736.13;4970592;28;96764;-80
2022/05/15 06:27:47;;;;;;;10.15;5.40;;;;;;;36.45;19.44;100727.94;4954498;28;96930;-80
2022/05/15 06:30:13;;;;;;;5.03;2.50;;;;;;;36.08;19.27;100717.66;4990561;28;97456;-80
2022/05/15 06:32:39;;;;;;;8.57;3.33;;;;;;;35.79;19.58;100733.38;4990908;28;97406;-80
2022/05/15 06:35:06;;;;;;;3.53;2.20;;;;;;;36.11;19.29;100728.16;4970959;28;96698;-80
2022/05/15 06:37:32;;;;;;;5.63;2.28;;;;;;;36.53;19.06;100728.78;4971282;28;98551;-80
2022/05/15 06:39:58;;;;;;;5.25;2.22;;;;;;;37.07;18.83;100733.91;4973526;28;100790;-80
2022/05/15 06:42:23;;;;;;;7.72;2.58;;;;;;;37.50;18.40;100738.78;4973545;28;101438;-80
2022/05/15 06:44:50;;;;;;;6.45;2.03;;;;;;;37.04;18.40;100737.09;4970566;28;96737;-80
2022/05/15 06:47:16;;;;;;;5.38;2.38;;;;;;;37.15;18.58;100738.31;4970957;28;97508;-80
2022/05/15 06:49:41;;;;;;;3.65;1.98;;;;;;;36.92;18.18;100725.94;4979012;28;101101;-80
2022/05/15 06:52:07;;;;;;;6.68;3.03;;;;;;;37.07;18.45;100727.63;4973623;28;101625;-80
2022/05/15 06:54:33;;;;;;;4.28;2.08;;;;;;;37.02;18.23;100736.44;4990620;28;98368;-80
2022/05/15 06:59:43;;;;;;;6.38;2.15;;;;;;;37.28;18.79;100724.56;4989593;28;102694;-80
2022/05/15 07:02:08;;;;;;;15.13;2.58;;;;;;;38.41;17.98;100722.97;4958179;28;101696;-80
2022/05/15 07:04:34;;;;;;;6.22;3.05;;;;;;;38.45;17.61;100735.97;4990392;28;96820;-80
2022/05/15 07:06:59;;;;;;;5.18;2.53;;;;;;;38.98;17.24;100725.53;4990361;28;98266;-80
2022/05/15 07:09:27;;;;;;;6.38;2.38;;;;;;;39.74;16.64;100729.56;4968971;28;101244;-80
2022/05/15 07:11:53;;;;;;;7.78;2.85;;;;;;;39.11;17.20;100728.13;4990833;28;97321;-80
2022/05/15 07:14:18;;;;;;;6.65;2.33;;;;;;;39.18;17.24;100728.84;4957301;28;96754;-80
2022/05/15 07:16:44;;;;;;;8.32;2.53;;;;;;;39.02;16.94;100738.56;4957740;28;96979;-81
2022/05/15 07:19:09;;;;;;;4.55;2.58;;;;;;;39.15;17.34;100710.94;4989810;28;97567;-80
2022/05/15 07:21:35;;;;;;;6.43;2.10;;;;;;;39.45;16.76;100743.09;4989984;28;98054;-80
2022/05/15 07:24:00;;;;;;;4.90;2.70;;;;;;;39.94;16.78;100730.13;4973066;28;96772;-81
2022/05/15 07:26:26;;;;;;;6.82;2.15;;;;;;;39.73;16.86;100745.22;4990447;28;97586;-80
2022/05/15 07:28:52;;;;;;;4.47;2.20;;;;;;;39.82;16.61;100746.56;4988609;28;101138;-80
2022/05/15 07:31:19;;;;;;;3.67;2.20;;;;;;;39.84;16.73;100736.19;4973269;28;101236;-85
2022/05/15 07:33:46;;;;;;;4.10;2.20;;;;;;;39.89;16.99;100742.91;4984747;28;96890;-85
2022/05/15 07:36:11;;;;;;;5.25;2.47;;;;;;;39.66;16.94;100730.75;4957048;28;97261;-85
2022/05/15 07:38:37;;;;;;;4.82;2.42;;;;;;;40.06;16.53;100730.16;4979652;28;97634;-85
2022/05/15 07:41:03;;;;;;;4.82;2.30;;;;;;;40.82;16.21;100724.78;4953887;28;101638;-85
2022/05/15 07:43:29;;;;;;;4.35;1.98;;;;;;;40.35;16.32;100724.78;4966955;28;97992;-84
2022/05/15 07:45:54;;;;;;;11.32;2.40;;;;;;;39.67;16.78;100739.81;4988017;28;96796;-79
2022/05/15 07:48:20;;;;;;;5.80;2.50;;;;;;;40.37;16.32;100733.66;4985104;28;97799;-81
2022/05/15 07:50:46;;;;;;;6.00;2.00;;;;;;;41.01;16.19;100728.19;4971323;28;102175;-81
2022/05/15 07:53:11;;;;;;;5.43;2.92;;;;;;;39.30;17.01;100729.78;4969013;28;97402;-82
2022/05/15 07:55:37;;;;;;;4.72;2.45;;;;;;;39.91;17.19;100718.75;4956772;28;96855;-81
2022/05/15 07:58:03;;;;;;;3.65;2.42;;;;;;;39.73;17.10;100738.88;4982208;28;100860;-82
2022/05/15 08:00:29;;;;;;;5.13;2.30;;;;;;;40.07;16.83;100729.06;4967367;28;97983;-81
2022/05/15 08:03:03;;;;;;;4.15;1.95;;;;;;;40.68;16.12;100715.97;4970680;28;96800;-81
2022/05/15 08:08:12;;;;;;;4.63;2.17;;;;;;;40.85;16.15;100719.63;4968525;28;101410;-81
2022/05/15 08:10:41;;;;;;;5.38;2.47;;;;;;;40.32;16.38;100711.53;4939476;28;101825;-81
2022/05/15 08:13:08;;;;;;;5.68;2.50;;;;;;;39.22;17.20;100734.72;4961529;28;97511;-86
2022/05/15 08:15:35;;;;;;;5.90;2.10;;;;;;;39.89;17.31;100732.75;4994522;28;97364;-86
2022/05/15 08:23:33;;;;;;;3.87;1.93;;;;;;;38.69;17.32;100723.31;4937920;28;101789;-86
2022/05/15 08:23:40;;;;;;;5.25;2.45;;;;;;;40.25;16.44;100725.41;4982976;28;96874;-83
2022/05/15 08:26:06;;;;;;;4.85;2.17;;;;;;;39.10;16.93;100732.78;4969598;28;96850;-87
2022/05/15 08:28:34;;;;;;;4.18;2.17;;;;;;;37.96;18.05;100740.41;4969451;28;101080;-80
2022/05/15 08:31:01;;;;;;;4.43;2.28;;;;;;;37.95;18.17;100737.88;4988760;28;98484;-81
2022/05/15 08:33:27;;;;;;;5.75;2.17;;;;;;;36.64;19.00;100719.94;4972969;28;97487;-81
2022/05/15 08:35:53;;;;;;;4.90;2.53;;;;;;;36.18;19.63;100738.03;4957004;28;96894;-86
2022/05/15 08:38:19;;;;;;;5.72;2.65;;;;;;;38.85;17.12;100740.22;4969829;28;101990;-87
2022/05/15 08:40:54;;;;;;;4.40;2.33;;;;;;;39.28;17.29;100714.59;4960123;28;100967;-85
2022/05/15 08:43:21;;;;;;;5.18;3.00;;;;;;;39.13;17.23;100742.44;4973443;28;96755;-85
2022/05/15 08:46:28;;;;;;;3.97;2.10;;;;;;;37.40;18.42;100738.38;4972153;28;96752;-86
2022/05/15 08:49:19;;;;;;;5.13;2.53;;;;;;;38.47;17.29;100731.13;4961573;28;101549;-85
2022/05/15 08:52:01;;;;;;;6.22;2.00;;;;;;;39.47;17.26;100732.69;4974921;28;98337;-87
2022/05/15 08:54:28;;;;;;;6.78;2.15;;;;;;;39.73;16.89;100733.38;4969429;28;96877;-85
2022/05/15 08:56:54;;;;;;;6.20;2.50;;;;;;;36.84;18.89;100739.84;4974915;28;97529;-85
2022/05/15 08:59:26;;;;;;;7.50;2.28;;;;;;;38.26;18.00;100726.88;4936876;28;101725;-86
2022/05/15 09:01:54;;;;;;;4.63;2.63;;;;;;;38.83;17.38;100731.38;4966149;28;101578;-88
2022/05/15 09:04:21;;;;;;;4.00;2.20;;;;;;;38.69;17.44;100737.03;4963928;28;96791;-89
2022/05/15 09:07:09;;;;;;;4.10;2.15;;;;;;;35.41;19.84;100746.69;4969829;28;96877;-86
2022/05/15 09:09:41;;;;;;;5.97;2.50;;;;;;;38.37;18.06;100741.75;4983013;28;97585;-85
2022/05/15 09:12:14;;;;;;;5.30;2.50;;;;;;;36.80;19.09;100730.41;4972351;28;101437;-84
2022/05/15 09:14:56;;;;;;;4.10;2.65;;;;;;;37.25;18.95;100735.94;4988507;28;96713;-84
2022/05/15 09:17:34;;;;;;;6.13;2.42;;;;;;;34.09;21.01;100751.03;4973155;28;97432;-84
2022/05/15 09:20:13;;;;;;;3.70;2.20;;;;;;;35.87;19.80;100748.69;4972077;28;101253;-84
2022/05/15 09:22:56;;;;;;;4.03;2.08;;;;;;;35.98;19.68;100739.88;4969657;28;101279;-85
2022/05/15 09:25:24;;;;;;;3.63;1.75;;;;;;;36.09;18.91;100747.50;4957215;28;96758;-80
2022/05/15 09:28:02;;;;;;;4.43;1.90;;;;;;;34.81;20.37;100740.91;4956472;28;97036;-85
2022/05/15 09:30:42;;;;;;;4.40;2.05;;;;;;;33.94;20.62;100723.88;4973239;28;98623;-81
2022/05/15 09:33:29;;;;;;;7.38;2.30;;;;;;;34.12;21.18;100739.75;4970787;28;101555;-87
2022/05/15 09:36:29;;;;;;;3.78;2.03;;;;;;;34.79;20.83;100746.59;4961485;28;97399;-86
2022/05/15 09:39:13;;;;;;;;;;;;;;;34.39;21.47;100748.16;4973765;28;97492;-83
2022/05/15 09:44:30;;;;;;;6.53;2.35;;;;;;;35.04;20.20;100710.63;4959636;28;101512;-85
2022/05/15 09:47:15;;;;;;;4.43;1.77;;;;;;;34.79;20.05;100726.63;4973266;28;97666;-87
2022/05/15 09:49:42;;;;;;;6.03;2.10;;;;;;;35.00;20.62;100725.72;4982689;28;97286;-87
2022/05/15 09:52:11;;;;;;;6.53;1.67;;;;;;;34.52;20.63;100731.06;4974749;28;101477;-86
2022/05/15 09:54:38;;;;;;;4.28;1.80;;;;;;;34.44;20.11;100737.50;4974863;28;101306;-86
2022/05/15 09:57:19;;;;;;;7.70;1.92;;;;;;;34.49;20.62;100730.41;4992484;28;97038;-86
2022/05/15 10:00:00;;;;;;;6.07;1.60;;;;;;;33.57;21.34;100744.88;4992199;28;96720;-85
2022/05/15 10:02:27;;;;;;;4.18;1.98;;;;;;;33.64;20.94;100735.94;4991609;28;98016;-84
2022/05/15 10:04:53;;;;;;;7.15;2.22;;;;;;;33.12;21.50;100732.38;4974999;28;97611;-84
2022/05/15 10:07:44;;;;;;;5.55;1.73;;;;;;;31.47;22.87;100704.16;4994568;28;97158;-85
2022/05/15 10:10:19;;;;;;;4.28;1.83;;;;;;;32.45;22.16;100736.81;4994648;28;96847;-85
2022/05/15 10:12:46;;;;;;;4.53;2.00;;;;;;;32.80;21.75;100728.97;4985267;28;101495;-84
2022/05/15 10:15:14;;;;;;;5.18;1.80;;;;;;;32.58;22.00;100721.75;4955558;28;101498;-86
2022/05/15 10:17:47;;;;;;;4.13;1.50;;;;;;;31.19;23.16;100710.06;4973897;28;97032;-85
2022/05/15 10:20:26;;;;;;;3.25;1.60;;;;;;;31.05;23.04;100725.19;4952299;28;97371;-85
2022/05/15 10:23:08;;;;;;;3.53;1.73;;;;;;;31.27;22.66;100717.28;4979926;28;102056;-85
2022/05/15 10:25:45;;;;;;;3.25;1.55;;;;;;;30.75;23.41;100704.25;4973551;28;97512;-80
2022/05/15 10:28:33;;;;;;;5.88;1.95;;;;;;;30.23;24.33;100725.38;4992094;28;97149;-80
2022/05/15 10:31:19;;;;;;;5.20;1.45;;;;;;;30.00;24.40;100721.63;4958010;28;97005;-78
2022/05/15 10:33:50;;;;;;;5.03;2.08;;;;;;;29.88;25.23;100721.13;4986932;28;97461;-78
2022/05/15 10:36:41;;;;;;;6.28;2.00;;;;;;;29.58;24.79;100714.44;4983045;28;101166;-78
2022/05/15 10:39:32;;;;;;;6.93;1.48;;;;;;;29.47;25.28;100726.44;4978671;28;96874;-78
2022/05/15 10:42:13;;;;;;;3.80;1.75;;;;;;;29.19;25.70;100723.13;4981201;28;96886;-78
2022/05/15 10:44:57;;;;;;;5.35;1.55;;;;;;;29.26;25.23;100723.31;4986152;28;97472;-78
2022/05/15 10:47:28;;;;;;;2.45;1.38;;;;;;;29.31;25.00;100708.28;4990410;28;98098;-77
2022/05/15 10:50:12;;;;;;;;;;;;;;;28.98;25.01;100720.81;4991394;28;97305;-78
2022/05/15 10:52:50;;;;;;;4.47;1.80;;;;;;;28.97;24.97;100707.47;4978766;28;96878;-78
2022/05/15 10:58:24;;;;;;;5.20;2.00;;;;;;;28.78;25.48;100705.88;4972780;28;100959;-76
2022/05/15 11:00:59;;;;;;;;;;;;;;;28.44;25.32;100707.53;4983909;28;96631;-78
2022/05/15 11:03:53;;;;;;;4.32;1.60;;;;;;;28.34;25.87;100703.22;5009133;28;96789;-81
2022/05/15 11:06:56;;;;;;;4.72;1.70;;;;;;;28.49;25.72;100690.84;4982347;28;98256;-89
2022/05/15 11:09:27;;;;;;;3.05;1.40;;;;;;;28.26;27.01;100692.38;4965581;28;101047;-90
2022/05/15 11:12:11;;;;;;;4.60;1.40;;;;;;;27.90;27.45;100690.59;4961863;28;96880;-90
2022/05/15 11:14:43;;;;;;;4.10;1.52;;;;;;;27.42;27.68;100699.00;4979036;28;97132;-89
2022/05/15 11:17:20;;;;;;;3.15;1.30;;;;;;;27.32;27.52;100696.38;4980403;28;98513;-90
2022/05/15 11:19:46;;;;;;;3.78;1.73;;;;;;;27.60;26.50;100675.59;4971693;28;101164;-89
2022/05/15 11:22:45;;;;;;;5.53;2.20;;;;;;;27.40;26.43;100683.00;4971602;28;96794;-80
2022/05/15 11:25:27;;;;;;;4.97;1.90;;;;;;;27.52;26.26;100681.78;4985517;28;97832;-81
2022/05/15 11:27:55;;;;;;;6.25;2.75;;;;;;;27.66;26.52;100676.84;4989551;28;97925;-82
2022/05/15 11:30:26;;;;;;;5.25;1.40;;;;;;;27.64;26.18;100650.03;4986709;28;98276;-81
2022/05/15 11:32:54;;;;;;;4.93;1.67;;;;;;;27.96;25.93;100676.47;4968567;28;97470;-74
2022/05/15 11:35:22;;;;;;;5.57;1.48;;;;;;;27.91;25.31;100667.16;4969664;28;97531;-75
2022/05/15 11:37:57;;;;;;;3.75;1.67;;;;;;;27.65;25.95;100665.19;4971171;28;102070;-76
2022/05/15 11:40:34;;;;;;;7.45;2.08;;;;;;;27.43;26.20;100665.66;4984130;28;99079;-74
2022/05/15 11:43:17;;;;;;;6.03;1.50;;;;;;;27.30;26.14;100649.88;4993872;28;96948;-74
2022/05/15 11:45:49;;;;;;;4.35;1.70;;;;;;;27.33;26.23;100664.91;4992516;28;97454;-76
2022/05/15 11:48:22;;;;;;;3.63;1.52;;;;;;;27.48;26.41;100661.50;4992039;28;98111;-75
2022/05/15 11:50:57;;;;;;;4.80;1.60;;;;;;;27.63;26.45;100669.06;4993202;28;98008;-74